createdAt,value
2022-08-14T00:02:03.140Z,97037.69
2022-08-14T00:04:42.308Z,97043.28
2022-08-14T00:07:14.608Z,97037.84
2022-08-14T00:10:02.011Z,97036.16
2022-08-14T00:12:37.787Z,97028.50
2022-08-14T00:15:11.962Z,97033.03
2022-08-14T00:17:47.213Z,97034.06
2022-08-14T00:20:24.101Z,97033.97
2022-08-14T00:23:12.161Z,97033.69
2022-08-14T00:25:59.037Z,97025.72
2022-08-14T00:28:36.644Z,97025.53
2022-08-14T00:31:06.555Z,97024.88
2022-08-14T00:33:50.423Z,97017.97
2022-08-14T00:36:36.954Z,97012.78
2022-08-14T00:39:18.339Z,97005.72
2022-08-14T00:41:47.527Z,97010.25
2022-08-14T00:44:21.433Z,97015.41
2022-08-14T00:47:01.000Z,97016.69
2022-08-14T00:49:37.743Z,97005.53
2022-08-14T00:52:18.122Z,97000.69
2022-08-14T00:54:52.939Z,97003.81
2022-08-14T00:57:28.186Z,96996.00
2022-08-14T01:00:00.721Z,96998.75
2022-08-14T01:02:31.725Z,96997.03
2022-08-14T01:05:02.807Z,96995.56
2022-08-14T01:07:38.826Z,96995.03
2022-08-14T01:10:16.797Z,97000.22
2022-08-14T01:12:45.154Z,97006.56
2022-08-14T01:15:21.503Z,96997.94
2022-08-14T01:18:27.144Z,97005.00
2022-08-14T01:21:06.450Z,97005.19
2022-08-14T01:23:46.440Z,96996.88
2022-08-14T01:26:23.476Z,96999.38
2022-08-14T01:29:07.100Z,97002.75
2022-08-14T01:31:43.252Z,97008.88
2022-08-14T01:35:19.688Z,96998.66
2022-08-14T01:37:02.798Z,97001.53
2022-08-14T01:39:37.951Z,97003.41
2022-08-14T01:42:06.670Z,97007.84
2022-08-14T01:44:41.264Z,97001.91
2022-08-14T01:47:16.523Z,97006.94
2022-08-14T01:50:01.200Z,96998.66
2022-08-14T01:52:59.998Z,97004.66
2022-08-14T01:55:32.276Z,97012.03
2022-08-14T01:58:20.418Z,97000.47
2022-08-14T02:00:55.127Z,97001.19
2022-08-14T02:03:24.632Z,97000.97
2022-08-14T02:06:04.110Z,96997.47
2022-08-14T02:08:53.375Z,96992.84
2022-08-14T02:11:26.932Z,96991.22
2022-08-14T02:14:07.405Z,96987.38
2022-08-14T02:16:39.468Z,96981.06
2022-08-14T02:19:09.318Z,96990.56
2022-08-14T02:21:43.459Z,96989.31
2022-08-14T02:24:40.162Z,96987.91
2022-08-14T02:28:22.236Z,96992.88
2022-08-14T02:29:59.325Z,96982.75
2022-08-14T02:32:46.311Z,96981.50
2022-08-14T02:35:18.696Z,96971.81
2022-08-14T02:37:49.335Z,96976.03
2022-08-14T02:40:19.573Z,96976.13
2022-08-14T02:42:55.338Z,96981.19
2022-08-14T02:45:32.967Z,96975.84
2022-08-14T02:48:10.423Z,96978.78
2022-08-14T02:50:56.012Z,96971.00
2022-08-14T02:53:24.077Z,96973.94
2022-08-14T02:55:52.470Z,96970.97
2022-08-14T02:58:30.294Z,96972.38
2022-08-14T03:01:01.458Z,96970.75
2022-08-14T03:03:31.795Z,96972.56
2022-08-14T03:06:00.945Z,96973.03
2022-08-14T03:08:33.482Z,96972.94
2022-08-14T03:11:07.663Z,96970.03
2022-08-14T03:13:39.702Z,96960.31
2022-08-14T03:16:26.620Z,96961.28
2022-08-14T03:18:59.751Z,96957.94
2022-08-14T03:21:31.579Z,96956.56
2022-08-14T03:24:21.707Z,96958.78
2022-08-14T03:26:57.488Z,96955.75
2022-08-14T03:29:29.535Z,96953.34
2022-08-14T03:31:59.572Z,96955.38
2022-08-14T03:34:48.127Z,96960.09
2022-08-14T03:37:37.719Z,96958.81
2022-08-14T03:40:11.268Z,96955.88
2022-08-14T03:42:40.864Z,96958.81
2022-08-14T03:45:19.985Z,96959.66
2022-08-14T03:48:01.825Z,96958.63
2022-08-14T03:50:32.546Z,96956.28
2022-08-14T03:53:02.207Z,96953.97
2022-08-14T03:55:31.441Z,96950.63
2022-08-14T03:58:00.890Z,96957.03
2022-08-14T04:00:40.277Z,96948.72
2022-08-14T04:03:16.505Z,96946.28
2022-08-14T04:05:48.792Z,96947.78
2022-08-14T04:08:22.920Z,96951.88
2022-08-14T04:10:59.241Z,96947.47
2022-08-14T04:13:31.779Z,96941.78
2022-08-14T04:16:05.081Z,96942.41
2022-08-14T04:18:34.260Z,96931.00
2022-08-14T04:21:03.978Z,96933.09
2022-08-14T04:23:33.716Z,96935.81
2022-08-14T04:26:03.643Z,96936.34
2022-08-14T04:29:02.171Z,96936.84
2022-08-14T04:32:58.072Z,96925.63
2022-08-14T04:34:24.054Z,96930.53
2022-08-14T04:37:13.217Z,96925.59
2022-08-14T04:39:59.195Z,96938.66
2022-08-14T04:42:47.138Z,96927.00
2022-08-14T04:45:21.713Z,96939.00
2022-08-14T04:48:09.071Z,96932.44
2022-08-14T04:50:44.802Z,96934.56
2022-08-14T04:53:16.421Z,96931.00
2022-08-14T04:55:49.987Z,96927.25
2022-08-14T04:58:32.586Z,96934.31
2022-08-14T05:01:03.587Z,96936.69
2022-08-14T05:03:37.679Z,96937.66
2022-08-14T05:06:35.167Z,96931.31
2022-08-14T05:08:57.154Z,96927.59
2022-08-14T05:11:36.548Z,96927.72
2022-08-14T05:14:43.461Z,96917.25
2022-08-14T05:16:54.119Z,96910.78
2022-08-14T05:19:29.507Z,96911.28
2022-08-14T05:22:16.811Z,96914.06
2022-08-14T05:24:48.809Z,96909.81
2022-08-14T05:27:23.267Z,96909.94
2022-08-14T05:29:55.462Z,96908.81
2022-08-14T05:32:27.930Z,96917.97
2022-08-14T05:35:00.718Z,96911.56
2022-08-14T05:37:30.517Z,96914.38
2022-08-14T05:40:01.086Z,96908.16
2022-08-14T05:42:32.064Z,96910.22
2022-08-14T05:45:11.134Z,96908.63
2022-08-14T05:47:43.021Z,96901.41
2022-08-14T05:50:17.290Z,96906.53
2022-08-14T05:52:51.881Z,96900.34
2022-08-14T05:55:22.922Z,96902.47
2022-08-14T05:57:59.419Z,96896.53
2022-08-14T06:00:38.602Z,96901.03
2022-08-14T06:03:09.701Z,96885.56
2022-08-14T06:05:40.499Z,96878.47
2022-08-14T06:08:31.349Z,96871.19
2022-08-14T06:11:09.269Z,96873.44
2022-08-14T06:13:44.665Z,96874.09
2022-08-14T06:16:17.759Z,96875.34
2022-08-14T06:18:51.826Z,96878.09
2022-08-14T06:21:23.316Z,96863.31
2022-08-14T06:23:51.775Z,96866.16
2022-08-14T06:26:22.135Z,96866.09
2022-08-14T06:28:51.749Z,96856.78
2022-08-14T06:31:20.727Z,96850.50
2022-08-14T06:35:09.383Z,96855.94
2022-08-14T06:36:40.319Z,96849.56
2022-08-14T06:39:10.446Z,96843.09
2022-08-14T06:41:57.971Z,96837.97
2022-08-14T06:44:30.356Z,96841.00
2022-08-14T06:47:03.104Z,96841.16
2022-08-14T06:49:40.083Z,96827.25
2022-08-14T06:52:15.258Z,96831.91
2022-08-14T06:54:45.143Z,96827.06
2022-08-14T06:57:14.200Z,96826.88
2022-08-14T06:59:43.198Z,96820.56
2022-08-14T07:02:29.282Z,96821.72
2022-08-14T07:05:20.982Z,96810.28
2022-08-14T07:07:53.519Z,96811.31
2022-08-14T07:10:24.986Z,96799.03
2022-08-14T07:13:02.188Z,96805.72
2022-08-14T07:15:39.711Z,96792.41
2022-08-14T07:18:12.197Z,96798.97
2022-08-14T07:20:42.218Z,96800.63
2022-08-14T07:23:20.998Z,96793.53
2022-08-14T07:25:51.713Z,96799.53
2022-08-14T07:28:23.700Z,96792.63
2022-08-14T07:30:56.450Z,96790.84
2022-08-14T07:33:29.300Z,96800.22
2022-08-14T07:36:02.432Z,96790.84
2022-08-14T07:38:37.823Z,96795.78
2022-08-14T07:41:14.343Z,96801.59
2022-08-14T07:43:53.039Z,96798.53
2022-08-14T07:46:29.214Z,96794.91
2022-08-14T07:49:00.043Z,96793.31
2022-08-14T07:51:36.822Z,96792.03
2022-08-14T07:54:11.272Z,96790.81
2022-08-14T07:56:47.156Z,96787.41
2022-08-14T07:59:18.904Z,96803.88
2022-08-14T08:01:51.236Z,96795.41
2022-08-14T08:04:27.080Z,96788.69
2022-08-14T08:06:55.989Z,96793.50
2022-08-14T08:09:32.437Z,96789.63
2022-08-14T08:12:05.080Z,96796.66
2022-08-14T08:14:56.458Z,96794.88
2022-08-14T08:17:34.543Z,96788.78
2022-08-14T08:20:11.645Z,96796.00
2022-08-14T08:22:48.277Z,96797.53
2022-08-14T08:25:19.903Z,96799.00
2022-08-14T08:27:58.950Z,96809.72
2022-08-14T08:30:28.096Z,96796.69
2022-08-14T08:33:02.967Z,96789.53
2022-08-14T08:35:46.924Z,96788.56
2022-08-14T08:39:15.148Z,96780.69
2022-08-14T08:41:11.795Z,96785.78
2022-08-14T08:43:46.061Z,96774.78
2022-08-14T08:46:24.082Z,96787.31
2022-08-14T08:51:25.159Z,96790.56
2022-08-14T08:54:01.221Z,96778.81
2022-08-14T08:56:52.029Z,96785.38
2022-08-14T08:59:30.836Z,96790.78
2022-08-14T09:02:01.135Z,96774.34
2022-08-14T09:04:37.405Z,96777.25
2022-08-14T09:07:15.044Z,96770.69
2022-08-14T09:09:57.067Z,96776.50
2022-08-14T09:12:33.575Z,96759.00
2022-08-14T09:15:03.676Z,96752.16
2022-08-14T09:17:41.504Z,96748.91
2022-08-14T09:20:12.452Z,96751.50
2022-08-14T09:22:47.681Z,96737.38
2022-08-14T09:25:19.542Z,96731.63
2022-08-14T09:27:49.662Z,96731.03
2022-08-14T09:30:32.987Z,96735.06
2022-08-14T09:33:22.883Z,96744.22
2022-08-14T09:36:08.876Z,96743.44
2022-08-14T09:38:54.572Z,96754.72
2022-08-14T09:42:20.943Z,96750.88
2022-08-14T09:44:45.740Z,96748.59
2022-08-14T09:47:15.485Z,96742.50
2022-08-14T09:49:52.149Z,96741.41
2022-08-14T09:52:33.427Z,96739.97
2022-08-14T09:55:03.483Z,96746.56
2022-08-14T09:57:33.618Z,96748.19
2022-08-14T10:00:28.930Z,96742.31
2022-08-14T10:03:05.738Z,96747.75
2022-08-14T10:05:39.182Z,96738.75
2022-08-14T10:08:25.499Z,96719.31
2022-08-14T10:10:57.073Z,96714.00
2022-08-14T10:13:52.471Z,96712.94
2022-08-14T10:16:27.610Z,96710.75
2022-08-14T10:19:09.598Z,96708.06
2022-08-14T10:21:58.510Z,96704.41
2022-08-14T10:24:36.341Z,96716.44
2022-08-14T10:27:06.842Z,96716.50
2022-08-14T10:29:37.237Z,96718.88
2022-08-14T10:32:17.410Z,96717.06
2022-08-14T10:34:52.850Z,96724.25
2022-08-14T10:37:23.767Z,96711.66
2022-08-14T10:40:10.536Z,96716.69
2022-08-14T10:42:50.334Z,96716.03
2022-08-14T10:45:24.345Z,96708.22
2022-08-14T10:48:09.121Z,96708.09
2022-08-14T10:50:50.471Z,96713.28
2022-08-14T10:53:30.514Z,96710.41
2022-08-14T10:56:21.799Z,96718.41
2022-08-14T10:59:02.593Z,96696.53
2022-08-14T11:01:38.650Z,96689.13
2022-08-14T11:04:30.874Z,96671.53
2022-08-14T11:06:59.629Z,96675.94
2022-08-14T11:09:32.080Z,96668.13
2022-08-14T11:12:34.488Z,96664.06
2022-08-14T11:15:02.709Z,96667.38
2022-08-14T11:17:33.151Z,96661.47
2022-08-14T11:20:04.949Z,96660.06
2022-08-14T11:22:56.267Z,96657.19
2022-08-14T11:25:24.540Z,96657.16
2022-08-14T11:28:11.003Z,96649.28
2022-08-14T11:30:49.894Z,96653.03
2022-08-14T11:33:24.493Z,96646.41
2022-08-14T11:35:59.728Z,96642.66
2022-08-14T11:38:29.287Z,96637.84
2022-08-14T11:40:58.672Z,96646.16
2022-08-14T11:43:30.565Z,96646.94
2022-08-14T11:45:59.164Z,96648.53
2022-08-14T11:49:02.800Z,96643.16
2022-08-14T11:51:24.429Z,96640.16
2022-08-14T11:53:55.182Z,96630.34
2022-08-14T11:56:25.690Z,96639.31
2022-08-14T11:58:58.627Z,96636.59
2022-08-14T12:01:28.837Z,96631.28
2022-08-14T12:03:59.436Z,96628.13
2022-08-14T12:06:38.661Z,96634.19
2022-08-14T12:09:14.778Z,96629.31
2022-08-14T12:11:47.615Z,96630.78
2022-08-14T12:14:34.785Z,96623.81
2022-08-14T12:17:12.727Z,96608.59
2022-08-14T12:19:51.295Z,96610.38
2022-08-14T12:22:34.646Z,96601.88
2022-08-14T12:25:08.448Z,96609.91
2022-08-14T12:27:53.613Z,96606.84
2022-08-14T12:30:35.941Z,96612.22
2022-08-14T12:33:30.461Z,96613.50
2022-08-14T12:36:05.526Z,96616.63
2022-08-14T12:38:38.267Z,96613.69
2022-08-14T12:41:20.309Z,96613.00
2022-08-14T12:43:53.878Z,96606.72
2022-08-14T12:46:27.154Z,96596.78
2022-08-14T12:48:59.125Z,96601.31
2022-08-14T12:51:28.857Z,96608.03
2022-08-14T12:54:01.887Z,96599.59
2022-08-14T12:56:33.905Z,96592.88
2022-08-14T12:59:04.667Z,96606.47
2022-08-14T13:02:01.919Z,96601.56
2022-08-14T13:04:23.260Z,96596.91
2022-08-14T13:06:51.746Z,96587.47
2022-08-14T13:09:23.327Z,96583.75
2022-08-14T13:11:59.119Z,96586.19
2022-08-14T13:14:48.754Z,96570.28
2022-08-14T13:17:18.336Z,96573.75
2022-08-14T13:19:47.872Z,96554.44
2022-08-14T13:22:28.933Z,96560.06
2022-08-14T13:25:05.541Z,96556.13
2022-08-14T13:27:39.234Z,96550.31
2022-08-14T13:30:10.618Z,96535.38
2022-08-14T13:32:45.210Z,96537.13
2022-08-14T13:35:16.607Z,96533.91
2022-08-14T13:37:52.185Z,96519.59
2022-08-14T13:40:26.697Z,96510.41
2022-08-14T13:42:57.553Z,96504.66
2022-08-14T13:46:00.071Z,96509.09
2022-08-14T13:48:32.271Z,96501.06
2022-08-14T13:51:04.906Z,96509.59
2022-08-14T13:53:41.360Z,96501.63
2022-08-14T13:56:14.793Z,96502.25
2022-08-14T13:58:59.956Z,96493.22
2022-08-14T14:01:29.763Z,96489.91
2022-08-14T14:03:59.644Z,96499.78
2022-08-14T14:06:32.360Z,96486.97
2022-08-14T14:09:00.676Z,96482.56
2022-08-14T14:11:30.312Z,96487.25
2022-08-14T14:14:00.586Z,96481.50
2022-08-14T14:16:30.405Z,96478.31
2022-08-14T14:19:09.778Z,96476.94
2022-08-14T14:21:40.521Z,96464.00
2022-08-14T14:24:15.028Z,96454.19
2022-08-14T14:26:50.122Z,96450.09
2022-08-14T14:29:24.190Z,96449.78
2022-08-14T14:31:59.124Z,96452.69
2022-08-14T14:34:33.439Z,96461.91
2022-08-14T14:37:04.802Z,96458.34
2022-08-14T14:39:37.925Z,96448.53
2022-08-14T14:42:31.989Z,96452.69
2022-08-14T14:45:06.290Z,96445.09
2022-08-14T14:47:35.296Z,96452.47
2022-08-14T14:50:05.089Z,96450.81
2022-08-14T14:52:37.094Z,96457.72
2022-08-14T14:55:09.325Z,96445.44
2022-08-14T14:57:39.499Z,96449.72
2022-08-14T15:00:12.554Z,96451.00
2022-08-14T15:02:42.770Z,96449.91
2022-08-14T15:05:12.752Z,96449.59
2022-08-14T15:07:41.557Z,96451.41
2022-08-14T15:10:27.613Z,96450.00
2022-08-14T15:13:03.541Z,96447.31
2022-08-14T15:15:33.003Z,96448.56
2022-08-14T15:18:01.764Z,96454.31
2022-08-14T15:20:31.195Z,96457.91
2022-08-14T15:23:01.010Z,96456.25
2022-08-14T15:25:40.810Z,96450.09
2022-08-14T15:28:13.167Z,96443.34
2022-08-14T15:30:59.012Z,96434.91
2022-08-14T15:34:33.147Z,96435.38
2022-08-14T15:36:36.013Z,96432.63
2022-08-14T15:39:05.547Z,96428.06
2022-08-14T15:41:41.820Z,96419.03
2022-08-14T15:44:25.244Z,96418.47
2022-08-14T15:46:55.063Z,96414.03
2022-08-14T15:49:24.325Z,96415.44
2022-08-14T15:51:58.778Z,96405.50
2022-08-14T15:54:31.412Z,96413.13
2022-08-14T15:57:01.879Z,96403.63
2022-08-14T15:59:54.043Z,96414.41
2022-08-14T16:02:24.591Z,96411.88
2022-08-14T16:04:56.054Z,96414.41
2022-08-14T16:07:26.997Z,96409.16
2022-08-14T16:10:18.303Z,96417.81
2022-08-14T16:12:46.630Z,96408.41
2022-08-14T16:15:18.286Z,96405.22
2022-08-14T16:17:47.015Z,96406.69
2022-08-14T16:20:42.283Z,96399.25
2022-08-14T16:23:10.906Z,96402.28
2022-08-14T16:25:41.595Z,96402.16
2022-08-14T16:28:13.437Z,96393.75
2022-08-14T16:30:57.708Z,96396.63
2022-08-14T16:33:59.031Z,96400.16
2022-08-14T16:36:30.067Z,96390.44
2022-08-14T16:39:01.955Z,96393.16
2022-08-14T16:41:30.769Z,96389.28
2022-08-14T16:44:02.570Z,96387.78
2022-08-14T16:46:38.241Z,96382.63
2022-08-14T16:49:12.286Z,96387.84
2022-08-14T16:51:44.697Z,96387.50
2022-08-14T16:54:34.362Z,96397.78
2022-08-14T16:57:16.239Z,96392.34
2022-08-14T16:59:52.446Z,96390.09
2022-08-14T17:02:36.642Z,96394.75
2022-08-14T17:05:21.767Z,96398.22
2022-08-14T17:08:28.521Z,96387.13
2022-08-14T17:11:10.558Z,96392.78
2022-08-14T17:13:59.020Z,96394.09
2022-08-14T17:16:33.197Z,96387.06
2022-08-14T17:19:13.613Z,96387.84
2022-08-14T17:21:42.762Z,96381.69
2022-08-14T17:24:57.649Z,96375.91
2022-08-14T17:27:07.529Z,96382.78
2022-08-14T17:29:44.701Z,96381.47
2022-08-14T17:32:29.519Z,96370.16
2022-08-14T17:35:16.452Z,96379.81
2022-08-14T17:37:55.880Z,96384.53
2022-08-14T17:40:31.202Z,96386.19
2022-08-14T17:43:02.450Z,96384.25
2022-08-14T17:45:46.940Z,96383.44
2022-08-14T17:49:10.355Z,96384.31
2022-08-14T17:51:23.313Z,96380.63
2022-08-14T17:53:53.837Z,96393.13
2022-08-14T17:56:30.917Z,96383.13
2022-08-14T17:59:04.068Z,96381.13
2022-08-14T18:01:38.690Z,96377.50
2022-08-14T18:04:28.605Z,96380.31
2022-08-14T18:07:09.953Z,96381.44
2022-08-14T18:09:57.706Z,96386.75
2022-08-14T18:12:36.500Z,96385.72
2022-08-14T18:15:14.470Z,96389.50
2022-08-14T18:17:45.426Z,96390.16
2022-08-14T18:21:39.633Z,96391.50
2022-08-14T18:23:14.359Z,96381.53
2022-08-14T18:25:54.617Z,96387.81
2022-08-14T18:28:51.354Z,96393.91
2022-08-14T18:31:42.258Z,96390.56
2022-08-14T18:34:32.262Z,96398.75
2022-08-14T18:37:16.812Z,96393.28
2022-08-14T18:40:01.732Z,96385.00
2022-08-14T18:42:45.581Z,96391.13
2022-08-14T18:45:18.911Z,96381.94
2022-08-14T18:48:51.082Z,96374.38
2022-08-14T18:51:45.756Z,96370.81
2022-08-14T18:54:32.746Z,96382.78
2022-08-14T18:57:05.398Z,96377.97
2022-08-14T18:59:36.485Z,96384.94
2022-08-14T19:02:42.690Z,96380.09
2022-08-14T19:05:11.801Z,96374.69
2022-08-14T19:07:41.059Z,96377.69
2022-08-14T19:10:17.093Z,96377.03
2022-08-14T19:13:12.175Z,96362.97
2022-08-14T19:15:43.937Z,96370.03
2022-08-14T19:18:30.693Z,96366.69
2022-08-14T19:21:13.325Z,96362.38
2022-08-14T19:23:44.636Z,96359.66
2022-08-14T19:26:36.377Z,96361.88
2022-08-14T19:29:38.071Z,96353.44
2022-08-14T19:32:39.713Z,96350.66
2022-08-14T19:35:49.351Z,96353.53
2022-08-14T19:38:52.192Z,96348.41
2022-08-14T19:41:23.930Z,96350.72
2022-08-14T19:44:10.117Z,96350.94
2022-08-14T19:47:01.871Z,96349.97
2022-08-14T19:50:24.378Z,96352.31
2022-08-14T19:52:25.809Z,96356.97
2022-08-14T19:54:59.305Z,96359.66
2022-08-14T19:57:29.383Z,96359.28
2022-08-14T20:00:04.542Z,96364.28
2022-08-14T20:02:42.840Z,96362.63
2022-08-14T20:05:12.311Z,96365.84
2022-08-14T20:08:07.973Z,96360.59
2022-08-14T20:11:04.940Z,96365.00
2022-08-14T20:13:32.782Z,96359.28
2022-08-14T20:16:11.853Z,96363.88
2022-08-14T20:18:51.944Z,96367.09
2022-08-14T20:21:21.730Z,96362.25
2022-08-14T20:23:50.150Z,96366.72
2022-08-14T20:26:30.894Z,96365.47
2022-08-14T20:29:04.801Z,96355.88
2022-08-14T20:31:37.632Z,96358.34
2022-08-14T20:34:18.620Z,96352.47
2022-08-14T20:37:02.400Z,96345.50
2022-08-14T20:39:34.681Z,96354.03
2022-08-14T20:42:29.490Z,96348.59
2022-08-14T20:45:23.456Z,96343.75
2022-08-14T20:47:57.839Z,96343.91
2022-08-14T20:50:29.579Z,96345.28
2022-08-14T20:52:58.508Z,96337.47
2022-08-14T20:55:30.395Z,96338.47
2022-08-14T20:58:02.484Z,96339.84
2022-08-14T21:00:51.833Z,96346.91
2022-08-14T21:03:57.055Z,96333.56
2022-08-14T21:07:23.557Z,96336.09
2022-08-14T21:10:04.529Z,96336.66
2022-08-14T21:12:34.075Z,96333.88
2022-08-14T21:15:03.499Z,96353.31
2022-08-14T21:17:37.479Z,96354.13
2022-08-14T21:20:25.546Z,96343.84
2022-08-14T21:22:56.540Z,96340.09
2022-08-14T21:25:25.144Z,96345.19
2022-08-14T21:27:59.056Z,96344.88
2022-08-14T21:30:47.023Z,96344.84
2022-08-14T21:33:16.552Z,96342.06
2022-08-14T21:35:47.158Z,96335.00
2022-08-14T21:38:18.075Z,96330.56
2022-08-14T21:40:49.122Z,96337.44
2022-08-14T21:43:19.943Z,96332.00
2022-08-14T21:45:53.660Z,96334.97
2022-08-14T21:48:25.039Z,96344.38
2022-08-14T21:51:02.007Z,96334.91
2022-08-14T21:53:54.125Z,96333.31
2022-08-14T21:56:37.382Z,96327.19
2022-08-14T21:59:10.969Z,96343.16
2022-08-14T22:02:00.257Z,96335.38
2022-08-14T22:04:40.077Z,96335.81
2022-08-14T22:07:17.111Z,96333.44
2022-08-14T22:09:55.221Z,96341.84
2022-08-14T22:12:57.181Z,96333.31
2022-08-14T22:15:16.711Z,96329.00
2022-08-14T22:17:45.452Z,96322.53
2022-08-14T22:20:28.667Z,96323.69
2022-08-14T22:23:03.283Z,96323.63
2022-08-14T22:25:34.126Z,96323.69
2022-08-14T22:28:04.419Z,96319.75
2022-08-14T22:30:33.489Z,96323.06
2022-08-14T22:33:04.854Z,96327.63
2022-08-14T22:35:34.497Z,96329.97
2022-08-14T22:38:35.481Z,96336.22
2022-08-14T22:41:01.595Z,96327.16
2022-08-14T22:43:42.360Z,96326.28
2022-08-14T22:46:15.115Z,96338.28
2022-08-14T22:48:49.738Z,96327.34
2022-08-14T22:51:21.698Z,96333.72
2022-08-14T22:53:54.619Z,96328.19
2022-08-14T22:56:30.064Z,96324.22
2022-08-14T22:59:00.417Z,96318.50
2022-08-14T23:01:57.322Z,96323.75
2022-08-14T23:04:35.155Z,96320.88
2022-08-14T23:07:21.753Z,96318.59
2022-08-14T23:09:56.241Z,96315.19
2022-08-14T23:12:29.406Z,96322.34
2022-08-14T23:15:00.338Z,96315.44
2022-08-14T23:17:39.279Z,96312.31
2022-08-14T23:20:18.939Z,96303.38
2022-08-14T23:22:51.513Z,96299.06
2022-08-14T23:25:56.844Z,96298.34
2022-08-14T23:28:33.719Z,96289.09
2022-08-14T23:31:35.877Z,96286.47
2022-08-14T23:34:09.217Z,96290.81
2022-08-14T23:36:53.394Z,96284.38
2022-08-14T23:39:30.292Z,96288.44
2022-08-14T23:42:04.061Z,96282.41
2022-08-14T23:44:35.369Z,96288.38
2022-08-14T23:47:12.118Z,96281.19
2022-08-14T23:50:01.125Z,96275.22
2022-08-14T23:53:06.204Z,96269.97
2022-08-14T23:55:28.627Z,96264.78
2022-08-14T23:58:00.554Z,96264.69
